Time;durP1;ratioP1;P1;durP2;ratioP2;P2;SDS_P1;SDS_P2;PMS_P1;PMS_P2;Temp;Humidity;BMP_temperature;BMP_pressure;BME280_temperature;BME280_humidity;BME280_pressure;Samples;Min_cycle;Max_cycle;Signal;HPM_P1;HPM_P2
2024/03/26 00:02:15;;;;;;;9.82;1.63;;;5.70;99.90;;;;;;5073799;28;20036;-63
2024/03/26 00:04:41;;;;;;;7.22;1.88;;;5.80;99.90;;;;;;5059969;28;20047;-63
2024/03/26 00:07:07;;;;;;;12.75;1.85;;;5.80;99.90;;;;;;5057041;28;20068;-64
2024/03/26 00:09:33;;;;;;;8.05;2.67;;;5.70;99.90;;;;;;5055435;28;20105;-64
2024/03/26 00:11:58;;;;;;;9.85;1.90;;;5.80;99.90;;;;;;5054709;28;20098;-64
2024/03/26 00:14:24;;;;;;;7.50;1.70;;;5.70;99.90;;;;;;5076960;28;20040;-63
2024/03/26 00:16:50;;;;;;;6.25;1.88;;;5.80;99.90;;;;;;5057356;28;20040;-63
2024/03/26 00:19:15;;;;;;;8.95;1.65;;;5.70;99.90;;;;;;5077017;28;20491;-63
2024/03/26 00:21:41;;;;;;;6.35;1.77;;;5.80;99.90;;;;;;5057233;28;20044;-63
2024/03/26 00:24:07;;;;;;;5.97;2.13;;;5.70;99.90;;;;;;5059434;28;20403;-63
2024/03/26 00:26:35;;;;;;;7.20;2.25;;;5.70;99.90;;;;;;5060550;28;20053;-63
2024/03/26 00:29:00;;;;;;;8.27;1.90;;;5.70;99.90;;;;;;5059580;28;20036;-63
2024/03/26 00:31:31;;;;;;;7.15;2.20;;;5.70;99.90;;;;;;5072954;28;20039;-63
2024/03/26 00:34:00;;;;;;;8.07;2.03;;;5.70;99.90;;;;;;5086251;28;21387;-63
2024/03/26 00:36:26;;;;;;;9.48;1.88;;;5.70;99.90;;;;;;5074118;28;20039;-63
2024/03/26 00:38:52;;;;;;;5.65;1.67;;;5.70;99.90;;;;;;5059965;28;20491;-63
2024/03/26 00:41:18;;;;;;;6.22;1.65;;;5.70;99.90;;;;;;5077049;28;20063;-64
2024/03/26 00:43:43;;;;;;;5.88;1.77;;;5.60;99.90;;;;;;5056643;28;20114;-63
2024/03/26 00:46:09;;;;;;;6.72;2.28;;;5.70;99.90;;;;;;5054130;28;20510;-63
2024/03/26 00:48:35;;;;;;;9.02;2.22;;;5.60;99.90;;;;;;5077525;28;20041;-63
2024/03/26 00:51:00;;;;;;;7.30;1.58;;;5.60;99.90;;;;;;5075792;28;20035;-64
2024/03/26 00:53:26;;;;;;;4.07;1.60;;;5.70;99.90;;;;;;5075127;28;20032;-63
2024/03/26 00:55:52;;;;;;;5.68;2.05;;;5.60;99.90;;;;;;5056180;28;20028;-63
2024/03/26 00:58:17;;;;;;;4.28;1.50;;;5.70;99.90;;;;;;5060844;28;20049;-64
2024/03/26 01:00:43;;;;;;;8.25;2.55;;;5.60;99.90;;;;;;5072714;28;20041;-63
2024/03/26 01:03:09;;;;;;;8.88;2.03;;;5.50;99.90;;;;;;5059279;28;20127;-63
2024/03/26 01:05:34;;;;;;;9.07;2.22;;;5.50;99.90;;;;;;5074409;28;20396;-63
2024/03/26 01:08:00;;;;;;;8.65;1.75;;;5.60;99.90;;;;;;5057458;28;20083;-63
2024/03/26 01:10:26;;;;;;;4.38;2.00;;;5.50;99.90;;;;;;5053915;28;20067;-63
2024/03/26 01:12:51;;;;;;;7.88;1.60;;;5.50;99.90;;;;;;5072558;28;20388;-63
2024/03/26 01:15:17;;;;;;;5.70;2.03;;;5.50;99.90;;;;;;5056351;28;20052;-63
2024/03/26 01:17:43;;;;;;;7.57;2.17;;;5.50;99.90;;;;;;5086621;28;20048;-63
2024/03/26 01:20:09;;;;;;;7.68;1.98;;;5.40;99.90;;;;;;5039841;28;20127;-63
2024/03/26 01:22:35;;;;;;;7.68;2.83;;;5.50;99.90;;;;;;5054884;28;20041;-64
2024/03/26 01:25:00;;;;;;;6.95;1.30;;;5.50;99.90;;;;;;5074220;28;20380;-63
2024/03/26 01:27:26;;;;;;;4.10;1.08;;;5.50;99.90;;;;;;5075524;28;20082;-63
2024/03/26 01:29:51;;;;;;;7.63;1.45;;;5.40;99.90;;;;;;5058378;28;20059;-63
2024/03/26 01:32:17;;;;;;;4.20;1.20;;;5.40;99.90;;;;;;5057681;28;20039;-63
2024/03/26 01:34:42;;;;;;;8.70;2.05;;;5.40;99.90;;;;;;5072307;28;20032;-63
2024/03/26 01:37:08;;;;;;;6.30;1.42;;;5.20;99.90;;;;;;5087473;28;20447;-63
2024/03/26 01:39:34;;;;;;;11.23;2.38;;;5.30;99.90;;;;;;5074072;28;20040;-63
2024/03/26 01:41:59;;;;;;;11.10;1.80;;;5.20;99.90;;;;;;5055295;28;20127;-63
2024/03/26 01:44:25;;;;;;;6.57;1.70;;;5.20;99.90;;;;;;5075266;28;21558;-63
2024/03/26 01:46:50;;;;;;;6.63;2.13;;;5.20;99.90;;;;;;5059003;28;20123;-63
2024/03/26 01:49:17;;;;;;;5.10;1.70;;;5.10;99.90;;;;;;5054431;28;20051;-63
2024/03/26 01:51:44;;;;;;;7.18;1.83;;;5.10;99.90;;;;;;5072825;28;20146;-63
2024/03/26 01:54:10;;;;;;;10.35;3.25;;;5.10;99.90;;;;;;5059480;28;20127;-63
2024/03/26 01:56:37;;;;;;;7.13;1.85;;;5.10;99.90;;;;;;5054969;28;20486;-63
2024/03/26 01:59:04;;;;;;;4.63;1.30;;;5.00;99.90;;;;;;5061912;28;20082;-63
2024/03/26 02:01:30;;;;;;;11.02;1.77;;;5.10;99.90;;;;;;5079764;28;20604;-63
2024/03/26 02:03:56;;;;;;;6.25;1.35;;;5.00;99.90;;;;;;5075532;28;20032;-63
2024/03/26 02:06:22;;;;;;;5.45;1.77;;;5.00;99.90;;;;;;5061305;28;20041;-63
2024/03/26 02:08:48;;;;;;;6.22;2.13;;;4.90;99.90;;;;;;5077551;28;20049;-63
2024/03/26 02:11:15;;;;;;;9.23;2.28;;;4.90;99.90;;;;;;5075478;28;20045;-63
2024/03/26 02:13:44;;;;;;;8.32;1.92;;;4.80;99.90;;;;;;5078453;28;20044;-63
2024/03/26 02:16:10;;;;;;;6.97;1.95;;;4.80;99.90;;;;;;5057319;28;20051;-63
2024/03/26 02:18:36;;;;;;;8.35;1.73;;;4.80;99.90;;;;;;5077575;28;20044;-63
2024/03/26 02:21:01;;;;;;;10.10;1.88;;;4.80;99.90;;;;;;5074467;28;20044;-63
2024/03/26 02:23:27;;;;;;;7.03;1.95;;;4.80;99.90;;;;;;5080454;28;20138;-63
2024/03/26 02:25:52;;;;;;;5.85;1.50;;;4.80;99.90;;;;;;5059228;28;20055;-63
2024/03/26 02:28:18;;;;;;;5.93;1.60;;;4.80;99.90;;;;;;5078098;28;20403;-63
2024/03/26 02:30:44;;;;;;;7.20;1.42;;;4.80;99.90;;;;;;5063222;28;20056;-63
2024/03/26 02:33:09;;;;;;;6.55;1.80;;;4.80;99.90;;;;;;5057776;28;20036;-63
2024/03/26 02:35:35;;;;;;;4.50;1.50;;;4.80;99.90;;;;;;5075279;28;20576;-63
2024/03/26 02:38:00;;;;;;;10.73;2.97;;;4.80;99.90;;;;;;5078108;28;20036;-63
2024/03/26 02:40:26;;;;;;;6.40;1.55;;;4.80;99.90;;;;;;5058801;28;20048;-63
2024/03/26 02:42:52;;;;;;;8.75;2.10;;;4.80;99.90;;;;;;5060652;28;20081;-63
2024/03/26 02:45:18;;;;;;;8.35;1.63;;;4.90;99.90;;;;;;5060298;28;20043;-63
2024/03/26 02:47:43;;;;;;;6.47;1.60;;;4.90;99.90;;;;;;5076023;28;20028;-63
2024/03/26 02:50:09;;;;;;;6.93;2.05;;;4.90;99.90;;;;;;5060562;28;20056;-63
2024/03/26 02:52:35;;;;;;;4.22;1.33;;;4.90;99.90;;;;;;5070180;28;20390;-63
2024/03/26 02:55:01;;;;;;;4.18;1.38;;;4.90;99.90;;;;;;5078512;28;20039;-63
2024/03/26 02:57:27;;;;;;;7.30;2.38;;;4.90;99.90;;;;;;5059336;28;20485;-63
2024/03/26 02:59:53;;;;;;;6.50;1.70;;;4.90;99.90;;;;;;5061039;28;20036;-63
2024/03/26 03:02:19;;;;;;;6.75;1.73;;;4.90;99.90;;;;;;5089964;28;20047;-63
2024/03/26 03:04:45;;;;;;;7.60;2.10;;;5.00;99.90;;;;;;5077503;28;20058;-63
2024/03/26 03:07:10;;;;;;;7.40;1.60;;;5.00;99.90;;;;;;5060724;28;20066;-63
2024/03/26 03:09:36;;;;;;;10.80;2.30;;;5.00;99.90;;;;;;5056661;28;20032;-63
2024/03/26 03:12:01;;;;;;;6.70;1.88;;;5.00;99.90;;;;;;5076297;28;20105;-63
2024/03/26 03:14:27;;;;;;;3.60;1.23;;;5.10;99.90;;;;;;5057816;28;20376;-63
2024/03/26 03:16:53;;;;;;;6.20;1.60;;;5.10;99.90;;;;;;5073517;28;20032;-63
2024/03/26 03:19:18;;;;;;;4.63;1.85;;;5.10;99.90;;;;;;5060543;28;20051;-63
2024/03/26 03:21:44;;;;;;;6.50;2.00;;;5.10;99.90;;;;;;5053197;28;20029;-63
2024/03/26 03:24:09;;;;;;;7.03;2.03;;;5.10;99.90;;;;;;5072575;28;20028;-63
2024/03/26 03:26:35;;;;;;;5.15;1.70;;;5.10;99.90;;;;;;5055838;28;20035;-63
2024/03/26 03:29:00;;;;;;;6.22;1.92;;;5.10;99.90;;;;;;5074692;28;20131;-63
2024/03/26 03:31:26;;;;;;;8.82;2.22;;;5.10;99.90;;;;;;5072806;28;20033;-63
2024/03/26 03:33:52;;;;;;;5.68;1.63;;;5.10;99.90;;;;;;5055774;28;20483;-63
2024/03/26 03:36:17;;;;;;;8.35;2.28;;;5.10;99.90;;;;;;5058025;28;20040;-63
2024/03/26 03:38:43;;;;;;;8.38;2.00;;;5.10;99.90;;;;;;5074950;28;20078;-63
2024/03/26 03:41:08;;;;;;;6.80;1.90;;;5.10;99.90;;;;;;5059985;28;20044;-63
2024/03/26 03:43:34;;;;;;;5.28;1.80;;;5.10;99.90;;;;;;5076917;28;20036;-63
2024/03/26 03:46:00;;;;;;;3.47;1.83;;;5.00;99.90;;;;;;5060378;28;20101;-63
2024/03/26 03:48:25;;;;;;;5.50;1.60;;;5.00;99.90;;;;;;5079040;28;20039;-63
2024/03/26 03:50:51;;;;;;;6.22;1.85;;;5.00;99.90;;;;;;5071646;28;20040;-63
2024/03/26 03:53:17;;;;;;;8.90;1.80;;;5.00;99.90;;;;;;5059884;28;20044;-63
2024/03/26 03:55:42;;;;;;;8.73;2.28;;;5.00;99.90;;;;;;5057309;28;20133;-63
2024/03/26 03:58:10;;;;;;;7.38;1.88;;;5.00;99.90;;;;;;5089190;28;20090;-63
2024/03/26 04:00:36;;;;;;;8.80;2.83;;;5.00;99.90;;;;;;5060014;28;20048;-63
2024/03/26 04:03:02;;;;;;;5.03;2.25;;;5.00;99.90;;;;;;5077341;28;20040;-63
2024/03/26 04:05:28;;;;;;;4.07;2.13;;;5.00;99.90;;;;;;5074493;28;20037;-63
2024/03/26 04:07:54;;;;;;;3.80;1.23;;;5.00;99.90;;;;;;5074586;28;20032;-63
2024/03/26 04:10:19;;;;;;;7.72;2.08;;;5.00;99.90;;;;;;5074288;28;20390;-63
2024/03/26 04:12:45;;;;;;;5.60;2.40;;;5.10;99.90;;;;;;5077403;28;20033;-63
2024/03/26 04:15:11;;;;;;;6.75;1.92;;;5.00;99.90;;;;;;5073697;28;20028;-63
2024/03/26 04:17:36;;;;;;;6.30;1.90;;;5.00;99.90;;;;;;5058016;28;20051;-63
2024/03/26 04:20:03;;;;;;;6.32;2.53;;;5.00;99.90;;;;;;5073413;28;20025;-63
2024/03/26 04:22:28;;;;;;;6.13;1.90;;;5.00;99.90;;;;;;5053399;28;20054;-63
2024/03/26 04:24:54;;;;;;;5.88;1.80;;;5.00;99.90;;;;;;5059882;28;20032;-63
2024/03/26 04:27:20;;;;;;;8.80;2.10;;;5.00;99.90;;;;;;5077680;28;20128;-63
2024/03/26 04:29:45;;;;;;;8.70;2.30;;;5.00;99.90;;;;;;5076084;28;20031;-63
2024/03/26 04:32:11;;;;;;;6.60;2.33;;;4.90;99.90;;;;;;5073870;28;20041;-63
2024/03/26 04:34:36;;;;;;;3.70;1.35;;;4.90;99.90;;;;;;5059405;28;20079;-63
2024/03/26 04:37:03;;;;;;;7.40;2.30;;;4.80;99.90;;;;;;5077261;28;20040;-63
2024/03/26 04:39:30;;;;;;;8.60;2.00;;;4.80;99.90;;;;;;5074298;28;20039;-63
2024/03/26 04:41:56;;;;;;;9.35;2.20;;;4.80;99.90;;;;;;5057306;28;20033;-63
2024/03/26 04:44:22;;;;;;;9.50;1.85;;;4.80;99.90;;;;;;5077972;28;20044;-63
2024/03/26 04:46:48;;;;;;;8.52;2.22;;;4.70;99.90;;;;;;5057131;28;20383;-63
2024/03/26 04:49:14;;;;;;;8.27;2.28;;;4.80;99.90;;;;;;5054691;28;20118;-63
2024/03/26 04:51:39;;;;;;;7.47;1.98;;;4.70;99.90;;;;;;5059811;28;20040;-63
2024/03/26 04:54:05;;;;;;;6.70;2.13;;;4.70;99.90;;;;;;5087362;28;20044;-63
2024/03/26 04:56:31;;;;;;;7.90;1.95;;;4.70;99.90;;;;;;5056576;28;20101;-63
2024/03/26 04:58:56;;;;;;;6.85;2.25;;;4.70;99.90;;;;;;5088283;28;20391;-63
2024/03/26 05:01:22;;;;;;;4.43;2.05;;;4.70;99.90;;;;;;5071927;28;20065;-63
2024/03/26 05:03:48;;;;;;;6.90;2.50;;;4.70;99.90;;;;;;5070961;28;20486;-63
2024/03/26 05:06:13;;;;;;;3.05;1.60;;;4.70;99.90;;;;;;5071852;28;20032;-63
2024/03/26 05:08:40;;;;;;;8.13;2.13;;;4.70;99.90;;;;;;5089229;28;20135;-63
2024/03/26 05:11:06;;;;;;;7.97;2.20;;;4.70;99.90;;;;;;5058898;28;20035;-63
2024/03/26 05:13:32;;;;;;;6.70;2.28;;;4.70;99.90;;;;;;5056168;28;20123;-63
2024/03/26 05:15:59;;;;;;;7.82;2.28;;;4.70;99.90;;;;;;5041085;28;20811;-63
2024/03/26 05:18:25;;;;;;;9.75;2.22;;;4.70;99.90;;;;;;5040332;28;20045;-63
2024/03/26 05:20:50;;;;;;;6.40;1.92;;;4.70;99.90;;;;;;5071636;28;20040;-63
2024/03/26 05:23:16;;;;;;;6.20;2.17;;;4.70;99.90;;;;;;5054337;28;20393;-63
2024/03/26 05:25:42;;;;;;;8.32;2.85;;;4.70;99.90;;;;;;5071761;28;20032;-63
2024/03/26 05:28:08;;;;;;;5.20;1.73;;;4.80;99.90;;;;;;5079524;28;20074;-63
2024/03/26 05:30:33;;;;;;;8.85;2.45;;;4.70;99.90;;;;;;5060900;28;20044;-63
2024/03/26 05:33:00;;;;;;;9.43;2.00;;;4.80;99.90;;;;;;5058746;28;20048;-63
2024/03/26 05:35:25;;;;;;;8.02;2.38;;;4.70;99.90;;;;;;5056347;28;20080;-63
2024/03/26 05:37:51;;;;;;;7.97;1.70;;;4.70;99.90;;;;;;5061477;28;20501;-63
2024/03/26 05:40:16;;;;;;;5.65;1.70;;;4.70;99.90;;;;;;5072706;28;20033;-63
2024/03/26 05:42:42;;;;;;;6.38;1.83;;;4.70;99.90;;;;;;5058294;28;20028;-63
2024/03/26 05:45:08;;;;;;;4.50;1.60;;;4.70;99.90;;;;;;5072303;28;20051;-63
2024/03/26 05:47:34;;;;;;;4.75;1.77;;;4.80;99.90;;;;;;5043094;28;20044;-63
2024/03/26 05:50:00;;;;;;;5.03;1.73;;;4.80;99.90;;;;;;5075324;28;20399;-63
2024/03/26 05:52:26;;;;;;;5.03;2.20;;;4.90;99.90;;;;;;5057361;28;20036;-64
2024/03/26 05:54:52;;;;;;;4.45;1.70;;;4.90;99.90;;;;;;5058592;28;20039;-63
2024/03/26 05:57:17;;;;;;;4.88;1.52;;;4.90;99.90;;;;;;5075488;28;20508;-63
2024/03/26 05:59:43;;;;;;;5.68;2.17;;;5.00;99.90;;;;;;5076204;28;20033;-64
2024/03/26 06:02:08;;;;;;;6.55;2.50;;;5.00;99.90;;;;;;5074931;28;20509;-63
2024/03/26 06:04:34;;;;;;;8.07;2.95;;;5.20;99.90;;;;;;5057840;28;20072;-63
2024/03/26 06:07:00;;;;;;;7.95;2.78;;;5.40;99.90;;;;;;5077003;28;20037;-63
2024/03/26 06:09:25;;;;;;;7.45;1.77;;;5.60;99.90;;;;;;5057182;28;20200;-63
2024/03/26 06:11:51;;;;;;;6.40;1.58;;;5.90;99.90;;;;;;5059043;28;20040;-63
2024/03/26 06:14:17;;;;;;;6.05;1.65;;;6.20;99.90;;;;;;5059196;28;20036;-63
2024/03/26 06:16:42;;;;;;;5.53;1.98;;;6.50;99.90;;;;;;5058290;28;20810;-64
2024/03/26 06:19:08;;;;;;;6.10;1.90;;;6.70;99.90;;;;;;5057319;28;20510;-63
2024/03/26 06:21:33;;;;;;;6.57;1.73;;;6.50;99.90;;;;;;5071999;28;20040;-63
2024/03/26 06:23:59;;;;;;;5.88;1.63;;;6.20;99.90;;;;;;5058569;28;20076;-64
2024/03/26 06:26:25;;;;;;;6.60;1.60;;;6.10;99.90;;;;;;5076667;28;20020;-63
2024/03/26 06:28:51;;;;;;;4.78;1.52;;;6.20;99.90;;;;;;5075219;28;20502;-63
2024/03/26 06:31:16;;;;;;;4.13;1.70;;;6.30;99.90;;;;;;5074403;28;20039;-64
2024/03/26 06:33:42;;;;;;;5.82;2.10;;;6.20;99.90;;;;;;5058354;28;20040;-64
2024/03/26 06:36:08;;;;;;;8.45;2.47;;;6.10;99.90;;;;;;5074405;28;20091;-64
2024/03/26 06:38:34;;;;;;;5.47;2.40;;;6.10;99.90;;;;;;5060600;28;20040;-64
2024/03/26 06:41:01;;;;;;;7.53;1.67;;;6.30;99.90;;;;;;5057655;28;20360;-64
2024/03/26 06:43:26;;;;;;;4.95;1.33;;;7.30;99.90;;;;;;5059689;28;20035;-64
2024/03/26 06:45:53;;;;;;;4.03;1.67;;;8.30;99.90;;;;;;5061147;28;20036;-64
2024/03/26 06:48:19;;;;;;;4.85;2.35;;;9.30;99.90;;;;;;5079584;28;20520;-64
2024/03/26 06:50:45;;;;;;;3.50;1.67;;;9.80;99.90;;;;;;5060541;28;20083;-64
2024/03/26 06:53:10;;;;;;;4.60;1.27;;;10.10;99.90;;;;;;5061052;28;20044;-64
2024/03/26 06:55:36;;;;;;;4.78;1.83;;;10.40;99.90;;;;;;5044973;28;20511;-64
2024/03/26 06:58:02;;;;;;;3.00;1.00;;;10.50;99.90;;;;;;5056432;28;20098;-64
2024/03/26 07:00:28;;;;;;;4.50;2.13;;;10.40;99.90;;;;;;5074049;28;20049;-64
2024/03/26 07:02:57;;;;;;;2.45;1.17;;;10.20;99.90;;;;;;5075043;28;20033;-64
2024/03/26 07:05:23;;;;;;;4.72;1.30;;;9.70;99.90;;;;;;5067102;28;20062;-64
2024/03/26 07:07:49;;;;;;;4.78;1.52;;;9.20;99.90;;;;;;5059241;28;20048;-64
2024/03/26 07:10:14;;;;;;;3.60;1.52;;;8.80;99.90;;;;;;5058335;28;20471;-64
2024/03/26 07:12:40;;;;;;;5.30;1.67;;;8.70;99.90;;;;;;5058048;28;20047;-64
2024/03/26 07:15:06;;;;;;;4.50;1.55;;;8.80;99.90;;;;;;5073563;28;20441;-64
2024/03/26 07:17:32;;;;;;;3.88;1.63;;;8.80;99.90;;;;;;5060019;28;20052;-64
2024/03/26 07:19:58;;;;;;;3.88;1.23;;;8.70;99.90;;;;;;5077630;28;20101;-64
2024/03/26 07:22:24;;;;;;;3.78;1.38;;;8.60;99.90;;;;;;5060994;28;20739;-64
2024/03/26 07:24:50;;;;;;;4.85;1.55;;;8.50;99.90;;;;;;5078327;28;20028;-64
2024/03/26 07:27:15;;;;;;;4.72;1.60;;;8.50;99.90;;;;;;5079123;28;20078;-64
2024/03/26 07:29:42;;;;;;;5.25;1.95;;;8.60;99.90;;;;;;5075899;28;20044;-64
2024/03/26 07:32:08;;;;;;;4.20;1.48;;;8.50;99.90;;;;;;5075989;28;20033;-64
2024/03/26 07:34:37;;;;;;;2.90;1.20;;;8.50;99.90;;;;;;5058134;28;20496;-64
2024/03/26 07:37:02;;;;;;;5.97;1.73;;;8.40;99.90;;;;;;5069451;28;20068;-64
2024/03/26 07:39:29;;;;;;;5.78;1.58;;;8.40;99.90;;;;;;5073305;28;20069;-65
2024/03/26 07:41:56;;;;;;;4.53;1.30;;;8.40;99.90;;;;;;5056813;28;20040;-64
2024/03/26 07:44:21;;;;;;;7.75;1.60;;;8.40;99.90;;;;;;5073091;28;20456;-64
2024/03/26 07:46:47;;;;;;;4.35;1.58;;;8.50;99.90;;;;;;5075383;28;20048;-64
2024/03/26 07:49:12;;;;;;;2.83;1.20;;;8.50;99.90;;;;;;5075613;28;20044;-64
2024/03/26 07:51:39;;;;;;;4.03;1.73;;;8.60;99.90;;;;;;5071088;28;20043;-64
2024/03/26 07:54:05;;;;;;;6.05;2.33;;;8.70;99.90;;;;;;5074932;28;20105;-64
2024/03/26 07:56:31;;;;;;;3.78;1.38;;;8.50;99.90;;;;;;5057460;28;20043;-64
2024/03/26 07:58:57;;;;;;;4.63;1.50;;;8.60;99.90;;;;;;5074550;28;20047;-64
2024/03/26 08:01:22;;;;;;;8.70;1.63;;;8.60;99.90;;;;;;5052522;28;20044;-64
2024/03/26 08:03:49;;;;;;;2.33;1.13;;;8.50;99.90;;;;;;5053266;28;20051;-64
2024/03/26 08:06:15;;;;;;;6.70;1.42;;;8.50;99.90;;;;;;5072597;28;20090;-64
2024/03/26 08:08:40;;;;;;;5.72;2.28;;;8.70;99.90;;;;;;5071155;28;20040;-64
2024/03/26 08:11:07;;;;;;;3.92;1.45;;;8.80;99.90;;;;;;5071652;28;20115;-65
2024/03/26 08:13:32;;;;;;;4.80;1.42;;;8.90;99.90;;;;;;5070526;28;20041;-65
2024/03/26 08:15:58;;;;;;;5.03;1.23;;;8.90;99.90;;;;;;5069337;28;20033;-65
2024/03/26 08:18:23;;;;;;;1.67;1.20;;;8.90;99.90;;;;;;5054878;28;20098;-65
2024/03/26 08:20:49;;;;;;;7.10;1.80;;;9.00;99.90;;;;;;5053931;28;20079;-65
2024/03/26 08:23:15;;;;;;;5.15;1.40;;;8.90;99.90;;;;;;5051198;28;20087;-65
2024/03/26 08:25:40;;;;;;;3.13;1.42;;;9.10;99.90;;;;;;5053743;28;20036;-65
2024/03/26 08:28:06;;;;;;;2.88;1.30;;;9.00;99.90;;;;;;5067544;28;20044;-65
2024/03/26 08:30:31;;;;;;;5.65;1.83;;;9.20;99.90;;;;;;5067867;28;20039;-65
2024/03/26 08:32:57;;;;;;;5.38;1.48;;;9.20;99.90;;;;;;5068817;28;20523;-65
2024/03/26 08:35:24;;;;;;;5.28;1.58;;;9.10;99.90;;;;;;5085561;28;20036;-65
2024/03/26 08:37:50;;;;;;;3.28;1.45;;;9.10;99.90;;;;;;5070574;28;20403;-65
2024/03/26 08:40:15;;;;;;;6.57;1.70;;;9.10;99.90;;;;;;5069748;28;20046;-65
2024/03/26 08:42:41;;;;;;;6.85;2.33;;;9.20;99.90;;;;;;5053667;28;20048;-65
2024/03/26 08:45:08;;;;;;;4.55;1.45;;;9.10;99.90;;;;;;5055158;28;20036;-65
2024/03/26 08:47:35;;;;;;;3.25;1.70;;;9.20;99.90;;;;;;5069082;28;20516;-65
2024/03/26 08:50:02;;;;;;;2.90;1.65;;;9.30;99.90;;;;;;5050555;28;20131;-65
2024/03/26 08:52:28;;;;;;;3.70;1.40;;;9.40;99.90;;;;;;5053286;28;20047;-65
2024/03/26 08:54:53;;;;;;;6.18;1.52;;;9.40;99.90;;;;;;5070290;28;20040;-65
2024/03/26 08:57:19;;;;;;;6.80;1.85;;;9.40;99.90;;;;;;5077066;28;20098;-65
2024/03/26 08:59:44;;;;;;;4.50;1.92;;;9.40;99.90;;;;;;5069200;28;20036;-65
2024/03/26 09:02:10;;;;;;;8.02;1.58;;;9.60;99.90;;;;;;5054912;28;20501;-65
2024/03/26 09:04:36;;;;;;;3.47;1.55;;;9.50;99.90;;;;;;5053239;28;20040;-65
2024/03/26 09:07:02;;;;;;;8.30;2.45;;;9.50;99.90;;;;;;5072009;28;20104;-65
2024/03/26 09:09:28;;;;;;;4.28;1.88;;;9.50;99.90;;;;;;5065759;28;20272;-65
2024/03/26 09:11:54;;;;;;;6.63;2.40;;;9.60;99.90;;;;;;5053409;28;20135;-65
2024/03/26 09:14:19;;;;;;;3.97;1.60;;;9.80;99.90;;;;;;5068844;28;20036;-65
2024/03/26 09:16:45;;;;;;;3.50;1.38;;;9.90;99.90;;;;;;5050512;28;20052;-65
2024/03/26 09:19:11;;;;;;;3.50;2.05;;;10.00;99.90;;;;;;5072608;28;20576;-65
2024/03/26 09:21:41;;;;;;;4.72;1.63;;;10.20;99.90;;;;;;5054747;28;20031;-65
2024/03/26 09:24:07;;;;;;;2.88;1.42;;;10.20;99.90;;;;;;5052956;28;20051;-65
2024/03/26 09:26:33;;;;;;;4.03;1.80;;;10.30;99.90;;;;;;5052036;28;20041;-65
2024/03/26 09:28:58;;;;;;;2.63;1.15;;;10.60;99.90;;;;;;5051884;28;20303;-65
2024/03/26 09:31:24;;;;;;;2.50;1.10;;;10.70;99.90;;;;;;5070431;28;20090;-65
2024/03/26 09:33:49;;;;;;;6.32;1.48;;;10.70;99.90;;;;;;5066822;28;20089;-65
2024/03/26 09:36:15;;;;;;;3.85;1.50;;;10.90;99.90;;;;;;5051333;28;20040;-65
2024/03/26 09:38:41;;;;;;;7.88;1.45;;;10.90;99.90;;;;;;5072120;28;20048;-65
2024/03/26 09:41:17;;;;;;;3.25;1.92;;;11.00;99.90;;;;;;5049561;28;20045;-65
2024/03/26 09:43:43;;;;;;;5.50;1.58;;;11.40;99.90;;;;;;5055753;28;20036;-65
2024/03/26 09:46:09;;;;;;;2.83;1.17;;;11.60;99.90;;;;;;5067652;28;20030;-65
2024/03/26 09:48:35;;;;;;;4.00;1.65;;;11.60;99.90;;;;;;5052280;28;20035;-65
2024/03/26 09:51:04;;;;;;;7.10;2.10;;;11.80;99.90;;;;;;5064816;28;20123;-65
2024/03/26 09:53:33;;;;;;;4.95;2.35;;;11.80;99.90;;;;;;5070376;28;20067;-65
2024/03/26 09:55:58;;;;;;;3.03;1.45;;;11.90;99.90;;;;;;5070912;28;20045;-65
2024/03/26 09:58:24;;;;;;;8.90;1.58;;;11.80;99.90;;;;;;5070993;28;20492;-65
2024/03/26 10:00:50;;;;;;;3.40;1.65;;;11.80;99.90;;;;;;5052364;28;20043;-65
2024/03/26 10:03:19;;;;;;;2.45;1.27;;;12.10;99.90;;;;;;5067216;28;20048;-65
2024/03/26 10:05:45;;;;;;;4.13;1.80;;;12.00;99.90;;;;;;5053860;28;20054;-65
2024/03/26 10:08:11;;;;;;;5.00;1.45;;;12.10;99.90;;;;;;5058141;28;20045;-66
2024/03/26 10:10:42;;;;;;;2.60;1.08;;;12.30;99.90;;;;;;5053214;28;20113;-65
2024/03/26 10:13:11;;;;;;;3.35;1.35;;;12.10;99.20;;;;;;5055842;28;20047;-65
2024/03/26 10:15:43;;;;;;;3.42;1.40;;;12.10;99.80;;;;;;5057591;28;20616;-65
2024/03/26 10:18:09;;;;;;;3.75;1.73;;;12.20;99.90;;;;;;5055288;28;20135;-65
2024/03/26 10:20:35;;;;;;;4.25;1.50;;;12.20;99.90;;;;;;5056734;28;20253;-66
2024/03/26 10:23:03;;;;;;;3.08;1.38;;;12.40;99.90;;;;;;5072537;28;20585;-65
2024/03/26 10:25:29;;;;;;;4.40;1.15;;;12.40;99.10;;;;;;5051841;28;20085;-65
2024/03/26 10:27:56;;;;;;;2.88;1.25;;;12.30;98.80;;;;;;5057182;28;20433;-65
2024/03/26 10:30:22;;;;;;;3.10;0.95;;;12.40;99.20;;;;;;5054138;28;20048;-65
2024/03/26 10:32:56;;;;;;;3.50;1.80;;;12.50;99.60;;;;;;5077475;28;20502;-65
2024/03/26 10:35:23;;;;;;;2.20;1.30;;;12.40;98.90;;;;;;5074528;28;20040;-65
2024/03/26 10:37:52;;;;;;;2.72;1.25;;;12.30;98.60;;;;;;5059750;28;20045;-65
2024/03/26 10:40:38;;;;;;;3.88;1.52;;;12.50;99.40;;;;;;5057670;28;20040;-65
2024/03/26 10:43:04;;;;;;;4.38;1.35;;;12.60;98.80;;;;;;5052688;28;20457;-65
2024/03/26 10:45:30;;;;;;;1.98;1.25;;;12.70;98.70;;;;;;5054831;28;20887;-65
2024/03/26 10:47:56;;;;;;;3.67;1.33;;;12.50;98.70;;;;;;5060404;28;20132;-65
2024/03/26 10:50:23;;;;;;;3.03;1.42;;;12.50;98.70;;;;;;5055555;28;20041;-65
2024/03/26 10:52:50;;;;;;;2.65;1.50;;;12.50;98.60;;;;;;5075579;28;20425;-65
2024/03/26 10:55:17;;;;;;;3.38;1.30;;;12.40;98.90;;;;;;5071940;28;20041;-65
2024/03/26 10:57:42;;;;;;;5.75;1.90;;;12.50;99.30;;;;;;5073951;28;20059;-65
2024/03/26 11:00:12;;;;;;;4.63;1.67;;;12.40;99.20;;;;;;5073586;28;20071;-65
2024/03/26 11:02:50;;;;;;;4.10;1.52;;;12.40;99.10;;;;;;5070564;28;20149;-65
2024/03/26 11:05:16;;;;;;;7.00;1.77;;;12.20;98.40;;;;;;5054061;28;20497;-65
2024/03/26 11:07:45;;;;;;;10.20;1.95;;;12.20;99.10;;;;;;5077063;28;20047;-65
2024/03/26 11:10:12;;;;;;;4.95;1.75;;;12.40;99.80;;;;;;5073965;28;20047;-65
2024/03/26 11:12:41;;;;;;;6.03;2.03;;;12.40;99.50;;;;;;5069518;28;20487;-65
2024/03/26 11:15:31;;;;;;;3.08;1.70;;;12.40;99.50;;;;;;5058329;28;20058;-65
2024/03/26 11:18:04;;;;;;;3.35;1.45;;;12.60;99.90;;;;;;5072043;28;20045;-66
2024/03/26 11:20:32;;;;;;;5.78;1.90;;;12.60;99.90;;;;;;5086411;28;20043;-66
2024/03/26 11:23:01;;;;;;;8.63;1.92;;;12.50;99.90;;;;;;5068260;28;20047;-66
2024/03/26 11:25:28;;;;;;;5.72;1.85;;;12.60;99.90;;;;;;5067777;28;20473;-66
2024/03/26 11:27:58;;;;;;;2.58;1.67;;;12.60;99.90;;;;;;5057210;28;20036;-66
2024/03/26 11:30:27;;;;;;;3.40;1.38;;;12.60;99.90;;;;;;5073811;28;20071;-66
2024/03/26 11:32:53;;;;;;;3.20;1.80;;;12.70;99.90;;;;;;5053430;28;20054;-66
2024/03/26 11:35:27;;;;;;;3.63;1.88;;;12.50;99.90;;;;;;5074799;28;20513;-66
2024/03/26 11:37:55;;;;;;;5.20;1.85;;;12.50;99.90;;;;;;5069730;28;20076;-66
2024/03/26 11:40:21;;;;;;;4.57;1.90;;;12.50;99.90;;;;;;5076826;28;20397;-66
2024/03/26 11:42:48;;;;;;;3.78;1.80;;;12.20;99.50;;;;;;5055067;28;20036;-66
2024/03/26 11:45:14;;;;;;;5.97;2.20;;;12.20;99.70;;;;;;5062678;28;20076;-66
2024/03/26 11:47:41;;;;;;;4.07;2.03;;;12.20;99.90;;;;;;5059242;28;20391;-66
2024/03/26 11:50:10;;;;;;;3.85;1.77;;;12.30;99.90;;;;;;5057549;28;20118;-66
2024/03/26 11:52:37;;;;;;;2.83;1.85;;;12.40;99.90;;;;;;5074859;28;20051;-66
2024/03/26 11:55:02;;;;;;;4.63;1.60;;;12.50;99.90;;;;;;5055931;28;20495;-66
2024/03/26 11:57:29;;;;;;;5.57;1.38;;;12.60;99.90;;;;;;5070143;28;20088;-66
2024/03/26 11:59:55;;;;;;;3.78;1.70;;;12.30;99.90;;;;;;5051974;28;20118;-66
2024/03/26 12:02:20;;;;;;;6.03;1.73;;;12.30;99.90;;;;;;5073471;28;20028;-66
2024/03/26 12:04:46;;;;;;;2.95;1.67;;;12.30;99.90;;;;;;5055767;28;20425;-66
2024/03/26 12:07:21;;;;;;;3.95;1.60;;;11.90;99.80;;;;;;5055740;28;20075;-66
2024/03/26 12:09:47;;;;;;;3.20;1.40;;;11.80;99.90;;;;;;5052770;28;20151;-66
2024/03/26 12:12:13;;;;;;;2.92;1.70;;;12.00;99.90;;;;;;5075476;28;20278;-66
2024/03/26 12:14:39;;;;;;;9.38;2.45;;;12.00;99.90;;;;;;5050031;28;20040;-66
2024/03/26 12:17:06;;;;;;;3.83;1.75;;;12.00;99.90;;;;;;5054453;28;20032;-66
2024/03/26 12:19:32;;;;;;;3.53;1.67;;;12.00;99.90;;;;;;5070512;28;20485;-66
2024/03/26 12:22:04;;;;;;;11.93;1.98;;;11.80;99.50;;;;;;5070313;28;20040;-66
2024/03/26 12:24:30;;;;;;;2.30;1.38;;;12.10;99.90;;;;;;5066759;28;20111;-66
2024/03/26 12:26:56;;;;;;;4.20;1.60;;;12.10;99.70;;;;;;5053446;28;20135;-66
2024/03/26 12:29:21;;;;;;;4.18;1.42;;;12.30;99.90;;;;;;5048778;28;20048;-66
2024/03/26 12:31:47;;;;;;;3.10;1.60;;;12.60;99.90;;;;;;5088557;28;20045;-66
2024/03/26 12:34:13;;;;;;;4.93;1.70;;;12.30;99.80;;;;;;5067710;28;20406;-66
2024/03/26 12:36:40;;;;;;;3.17;1.17;;;12.10;99.40;;;;;;5071531;28;20040;-66
2024/03/26 12:39:10;;;;;;;8.27;1.58;;;12.00;99.50;;;;;;5070764;28;20045;-66
2024/03/26 12:41:36;;;;;;;3.70;1.52;;;12.00;99.50;;;;;;5073655;28;20057;-66
2024/03/26 12:44:09;;;;;;;3.75;1.80;;;12.00;99.80;;;;;;5052300;28;20097;-66
2024/03/26 12:46:35;;;;;;;6.45;1.60;;;12.10;99.90;;;;;;5074123;28;20043;-66
2024/03/26 12:49:04;;;;;;;1.25;1.13;;;12.20;99.90;;;;;;5072322;28;20230;-66